createdAt,value
2023-09-27T00:01:39.725Z,99.90
2023-09-27T00:04:06.815Z,99.90
2023-09-27T00:06:36.941Z,99.90
2023-09-27T00:09:05.955Z,99.90
2023-09-27T00:11:35.164Z,99.90
2023-09-27T00:14:02.326Z,99.90
2023-09-27T00:16:32.159Z,99.90
2023-09-27T00:19:01.533Z,99.90
2023-09-27T00:21:28.566Z,99.90
2023-09-27T00:23:55.474Z,99.90
2023-09-27T00:26:22.656Z,99.90
2023-09-27T00:28:49.799Z,99.90
2023-09-27T00:31:20.056Z,99.90
2023-09-27T00:33:49.226Z,99.90
2023-09-27T00:36:18.437Z,99.90
2023-09-27T00:38:45.954Z,99.90
2023-09-27T00:41:15.485Z,99.90
2023-09-27T00:43:42.715Z,99.90
2023-09-27T00:46:15.342Z,99.90
2023-09-27T00:48:43.138Z,99.90
2023-09-27T00:51:10.410Z,99.90
2023-09-27T00:53:38.964Z,99.90
2023-09-27T00:56:07.404Z,99.90
2023-09-27T00:58:36.710Z,99.90
2023-09-27T01:01:03.616Z,99.90
2023-09-27T01:03:34.381Z,99.90
2023-09-27T01:06:04.105Z,99.90
2023-09-27T01:08:31.528Z,99.90
2023-09-27T01:10:58.892Z,99.90
2023-09-27T01:13:28.143Z,99.90
2023-09-27T01:15:57.209Z,99.90
2023-09-27T01:18:26.753Z,99.90
2023-09-27T01:20:55.837Z,99.90
2023-09-27T01:23:22.936Z,99.90
2023-09-27T01:26:00.083Z,99.90
2023-09-27T01:28:27.527Z,99.90
2023-09-27T01:30:54.526Z,99.90
2023-09-27T01:33:21.467Z,99.90
2023-09-27T01:35:50.880Z,99.90
2023-09-27T01:38:18.104Z,99.90
2023-09-27T01:40:46.202Z,99.90
2023-09-27T01:43:13.425Z,99.90
2023-09-27T01:45:40.939Z,99.90
2023-09-27T01:48:10.321Z,99.90
2023-09-27T01:50:39.186Z,99.90
2023-09-27T01:53:06.865Z,99.90
2023-09-27T01:55:37.260Z,99.90
2023-09-27T01:58:04.832Z,99.90
2023-09-27T02:00:32.288Z,99.90
2023-09-27T02:03:00.924Z,99.90
2023-09-27T02:05:29.949Z,99.90
2023-09-27T02:07:57.669Z,99.90
2023-09-27T02:10:25.400Z,99.90
2023-09-27T02:12:52.591Z,99.90
2023-09-27T02:15:19.737Z,99.90
2023-09-27T02:17:49.764Z,99.90
2023-09-27T02:20:21.951Z,99.90
2023-09-27T02:22:50.762Z,99.90
2023-09-27T02:25:17.965Z,99.90
2023-09-27T02:27:47.825Z,99.90
2023-09-27T02:30:15.697Z,99.90
2023-09-27T02:32:46.970Z,99.90
2023-09-27T02:35:15.737Z,99.90
2023-09-27T02:37:45.083Z,99.90
2023-09-27T02:40:15.771Z,99.90
2023-09-27T02:42:44.348Z,99.90
2023-09-27T02:45:13.946Z,99.90
2023-09-27T02:47:44.866Z,99.90
2023-09-27T02:50:13.418Z,99.90
2023-09-27T02:52:44.940Z,99.90
2023-09-27T02:55:13.390Z,99.90
2023-09-27T02:57:40.809Z,99.90
2023-09-27T03:00:08.180Z,99.90
2023-09-27T03:02:38.742Z,99.90
2023-09-27T03:05:08.445Z,99.90
2023-09-27T03:07:35.556Z,99.90
2023-09-27T03:10:11.705Z,99.90
2023-09-27T03:12:40.722Z,99.90
2023-09-27T03:15:13.473Z,99.90
2023-09-27T03:17:44.112Z,99.90
2023-09-27T03:20:19.242Z,99.90
2023-09-27T03:22:49.136Z,99.90
2023-09-27T03:25:20.530Z,99.90
2023-09-27T03:27:48.074Z,99.90
2023-09-27T03:30:16.061Z,99.90
2023-09-27T03:32:43.881Z,99.90
2023-09-27T03:35:10.934Z,99.90
2023-09-27T03:37:37.903Z,99.90
2023-09-27T03:40:14.552Z,99.90
2023-09-27T03:42:44.866Z,99.90
2023-09-27T03:45:19.651Z,99.90
2023-09-27T03:47:48.731Z,99.90
2023-09-27T03:50:19.354Z,99.90
2023-09-27T03:52:46.354Z,99.90
2023-09-27T03:55:13.642Z,99.90
2023-09-27T03:57:42.370Z,99.90
2023-09-27T04:00:15.536Z,99.90
2023-09-27T04:02:44.298Z,99.90
2023-09-27T04:05:12.093Z,99.90
2023-09-27T04:07:39.110Z,99.90
2023-09-27T04:10:09.688Z,99.90
2023-09-27T04:12:37.410Z,99.90
2023-09-27T04:15:09.776Z,99.90
2023-09-27T04:17:38.447Z,99.90
2023-09-27T04:20:20.295Z,99.90
2023-09-27T04:22:49.392Z,99.90
2023-09-27T04:25:17.359Z,99.90
2023-09-27T04:27:47.055Z,99.90
2023-09-27T04:30:15.421Z,99.90
2023-09-27T04:32:51.643Z,99.90
2023-09-27T04:35:22.479Z,99.90
2023-09-27T04:37:50.086Z,99.90
2023-09-27T04:40:17.893Z,99.90
2023-09-27T04:42:46.656Z,99.90
2023-09-27T04:45:14.832Z,99.90
2023-09-27T04:47:46.256Z,99.90
2023-09-27T04:50:14.212Z,99.90
2023-09-27T04:52:42.001Z,99.90
2023-09-27T04:55:11.966Z,99.90
2023-09-27T04:57:39.030Z,99.90
2023-09-27T05:00:12.550Z,99.90
2023-09-27T05:02:42.395Z,99.90
2023-09-27T05:05:11.794Z,99.90
2023-09-27T05:07:41.273Z,99.90
2023-09-27T05:10:09.068Z,99.90
2023-09-27T05:12:38.059Z,99.90
2023-09-27T05:15:05.564Z,99.90
2023-09-27T05:17:32.824Z,99.90
2023-09-27T05:20:12.965Z,99.90
2023-09-27T05:22:44.460Z,99.90
2023-09-27T05:25:12.286Z,99.90
2023-09-27T05:27:39.943Z,99.90
2023-09-27T05:30:12.575Z,99.90
2023-09-27T05:32:40.171Z,99.90
2023-09-27T05:35:09.561Z,99.90
2023-09-27T05:37:38.956Z,99.90
2023-09-27T05:40:08.714Z,99.90
2023-09-27T05:42:36.687Z,99.90
2023-09-27T05:45:07.109Z,99.90
2023-09-27T05:47:34.675Z,99.90
2023-09-27T05:50:05.158Z,99.90
2023-09-27T05:52:34.346Z,99.90
2023-09-27T05:55:03.020Z,99.90
2023-09-27T05:57:36.929Z,99.90
2023-09-27T06:00:15.884Z,99.90
2023-09-27T06:02:44.654Z,99.90
2023-09-27T06:05:12.805Z,99.90
2023-09-27T06:07:39.759Z,99.90
2023-09-27T06:10:10.183Z,99.90
2023-09-27T06:12:37.187Z,99.90
2023-09-27T06:15:04.999Z,99.90
2023-09-27T06:17:34.442Z,99.90
2023-09-27T06:20:06.692Z,99.90
2023-09-27T06:22:36.413Z,99.90
2023-09-27T06:25:03.327Z,99.90
2023-09-27T06:27:30.304Z,99.90
2023-09-27T06:29:57.286Z,99.90
2023-09-27T06:32:24.445Z,99.90
2023-09-27T06:34:53.840Z,99.90
2023-09-27T06:37:20.998Z,99.90
2023-09-27T06:39:47.875Z,99.90
2023-09-27T06:42:15.451Z,99.90
2023-09-27T06:44:42.620Z,99.90
2023-09-27T06:47:11.961Z,99.90
2023-09-27T06:49:38.973Z,99.90
2023-09-27T06:52:06.595Z,99.90
2023-09-27T06:54:38.997Z,99.90
2023-09-27T06:57:06.008Z,99.90
2023-09-27T06:59:35.642Z,99.90
2023-09-27T07:02:05.171Z,99.90
2023-09-27T07:04:37.776Z,99.90
2023-09-27T07:07:04.861Z,99.90
2023-09-27T07:09:34.604Z,99.90
2023-09-27T07:12:01.831Z,99.90
2023-09-27T07:14:29.227Z,99.90
2023-09-27T07:17:01.482Z,99.90
2023-09-27T07:19:32.351Z,99.90
2023-09-27T07:22:00.708Z,99.90
2023-09-27T07:24:31.429Z,99.90
2023-09-27T07:27:00.528Z,99.90
2023-09-27T07:29:28.451Z,99.90
2023-09-27T07:31:55.771Z,99.90
2023-09-27T07:34:24.997Z,99.90
2023-09-27T07:36:55.240Z,99.90
2023-09-27T07:39:23.837Z,99.90
2023-09-27T07:41:54.050Z,99.90
2023-09-27T07:44:22.389Z,99.90
2023-09-27T07:46:49.999Z,99.90
2023-09-27T07:49:17.036Z,99.90
2023-09-27T07:51:43.931Z,99.90
2023-09-27T07:54:11.109Z,99.90
2023-09-27T07:56:41.406Z,99.90
2023-09-27T07:59:08.861Z,99.90
2023-09-27T08:01:37.262Z,99.90
2023-09-27T08:04:11.131Z,99.90
2023-09-27T08:06:39.819Z,99.90
2023-09-27T08:09:17.631Z,99.90
2023-09-27T08:11:51.857Z,99.90
2023-09-27T08:14:21.007Z,99.90
2023-09-27T08:16:48.186Z,99.90
2023-09-27T08:19:17.643Z,99.90
2023-09-27T08:21:44.506Z,99.90
2023-09-27T08:24:11.596Z,99.80
2023-09-27T08:26:41.003Z,99.70
2023-09-27T08:29:09.033Z,99.60
2023-09-27T08:31:39.215Z,99.20
2023-09-27T08:34:08.533Z,99.10
2023-09-27T08:36:35.632Z,98.50
2023-09-27T08:39:05.645Z,98.30
2023-09-27T08:41:32.789Z,98.00
2023-09-27T08:43:59.788Z,97.80
2023-09-27T08:46:30.882Z,97.10
2023-09-27T08:48:59.125Z,97.00
2023-09-27T08:51:27.282Z,96.90
2023-09-27T08:53:54.204Z,96.90
2023-09-27T08:56:21.873Z,96.50
2023-09-27T08:58:50.130Z,96.10
2023-09-27T09:01:18.123Z,95.80
2023-09-27T09:03:47.530Z,95.60
2023-09-27T09:06:17.014Z,95.70
2023-09-27T09:08:47.749Z,94.90
2023-09-27T09:11:20.007Z,95.10
2023-09-27T09:14:06.446Z,95.00
2023-09-27T09:16:41.528Z,94.60
2023-09-27T09:19:42.990Z,94.40
2023-09-27T09:22:14.413Z,94.00
2023-09-27T09:24:43.426Z,93.60
2023-09-27T09:27:18.283Z,93.10
2023-09-27T09:29:54.191Z,92.90
2023-09-27T09:32:23.667Z,92.80
2023-09-27T09:34:57.796Z,92.70
2023-09-27T09:37:31.116Z,92.60
2023-09-27T09:40:16.389Z,92.70
2023-09-27T09:42:49.927Z,91.90
2023-09-27T09:45:17.103Z,91.90
2023-09-27T09:47:45.545Z,91.50
2023-09-27T09:50:19.853Z,91.30
2023-09-27T09:52:50.101Z,90.90
2023-09-27T09:55:42.346Z,90.70
2023-09-27T09:58:36.212Z,90.60
2023-09-27T10:01:04.671Z,90.50
2023-09-27T10:03:36.615Z,90.40
2023-09-27T10:06:09.845Z,90.40
2023-09-27T10:08:41.295Z,89.90
2023-09-27T10:11:13.646Z,89.20
2023-09-27T10:13:43.996Z,89.00
2023-09-27T10:16:11.546Z,88.30
2023-09-27T10:18:40.026Z,88.20
2023-09-27T10:21:10.929Z,87.80
2023-09-27T10:23:47.007Z,87.50
2023-09-27T10:26:30.236Z,85.70
2023-09-27T10:29:07.497Z,85.90
2023-09-27T10:32:01.736Z,85.70
2023-09-27T10:34:34.878Z,85.70
2023-09-27T10:37:18.032Z,84.60
2023-09-27T10:40:23.687Z,84.40
2023-09-27T10:42:50.884Z,84.70
2023-09-27T10:45:18.413Z,83.90
2023-09-27T10:47:50.868Z,83.00
2023-09-27T10:50:28.713Z,83.30
2023-09-27T10:52:56.471Z,83.30
2023-09-27T10:55:23.693Z,82.30
2023-09-27T10:57:51.495Z,81.00
2023-09-27T11:00:19.624Z,80.80
2023-09-27T11:02:46.706Z,80.80
2023-09-27T11:05:13.808Z,80.20
2023-09-27T11:07:48.034Z,80.40
2023-09-27T11:10:30.892Z,79.80
2023-09-27T11:13:11.872Z,80.20
2023-09-27T11:15:45.934Z,80.10
2023-09-27T11:18:13.334Z,79.40
2023-09-27T11:20:43.949Z,77.40
2023-09-27T11:23:11.245Z,77.10
2023-09-27T11:25:39.184Z,76.50
2023-09-27T11:28:06.469Z,76.00
2023-09-27T11:30:34.535Z,75.80
2023-09-27T11:33:06.564Z,72.30
2023-09-27T11:35:34.082Z,73.10
2023-09-27T11:38:16.093Z,73.40
2023-09-27T11:40:45.101Z,74.10
2023-09-27T11:43:13.619Z,72.50
2023-09-27T11:45:44.290Z,73.50
2023-09-27T11:48:13.666Z,72.90
2023-09-27T11:50:40.999Z,72.90
2023-09-27T11:53:10.745Z,69.20
2023-09-27T11:55:41.039Z,69.30
2023-09-27T11:58:09.600Z,70.70
2023-09-27T12:00:36.662Z,69.00
2023-09-27T12:03:05.927Z,67.50
2023-09-27T12:05:37.155Z,70.30
2023-09-27T12:08:08.228Z,66.90
2023-09-27T12:10:35.439Z,67.10
2023-09-27T12:13:02.632Z,65.50
2023-09-27T12:15:31.873Z,63.80
2023-09-27T12:18:01.415Z,63.90
2023-09-27T12:20:40.700Z,63.60
2023-09-27T12:23:10.328Z,64.80
2023-09-27T12:25:38.116Z,65.40
2023-09-27T12:28:05.968Z,65.30
2023-09-27T12:30:33.281Z,63.30
2023-09-27T12:33:00.688Z,65.80
2023-09-27T12:35:30.047Z,64.90
2023-09-27T12:38:00.701Z,64.60
2023-09-27T12:40:27.909Z,64.40
2023-09-27T12:42:57.060Z,65.00
2023-09-27T12:45:24.144Z,64.90
2023-09-27T12:47:51.029Z,64.90
2023-09-27T12:50:21.339Z,65.70
2023-09-27T12:55:15.698Z,62.50
2023-09-27T12:57:42.561Z,65.40
2023-09-27T13:00:13.926Z,65.70
2023-09-27T13:02:41.557Z,65.30
2023-09-27T13:05:11.334Z,66.30
2023-09-27T13:07:38.728Z,62.90
2023-09-27T13:10:06.355Z,61.80
2023-09-27T13:12:40.198Z,61.80
2023-09-27T13:15:09.850Z,60.60
2023-09-27T13:17:37.285Z,62.30
2023-09-27T13:20:08.954Z,62.70
2023-09-27T13:22:38.282Z,63.80
2023-09-27T13:25:07.814Z,62.20
2023-09-27T13:27:35.013Z,61.60
2023-09-27T13:30:02.331Z,63.40
2023-09-27T13:32:31.578Z,59.30
2023-09-27T13:35:00.897Z,58.60
2023-09-27T13:37:30.026Z,58.30
2023-09-27T13:40:00.563Z,58.90
2023-09-27T13:42:30.473Z,57.30
2023-09-27T13:44:57.515Z,56.80
2023-09-27T13:47:29.826Z,59.80
2023-09-27T13:49:59.184Z,58.90
2023-09-27T13:52:26.772Z,58.60
2023-09-27T13:54:53.874Z,58.20
2023-09-27T13:57:22.908Z,58.20
2023-09-27T13:59:50.016Z,55.70
2023-09-27T14:02:17.560Z,57.30
2023-09-27T14:04:44.726Z,56.60
2023-09-27T14:07:11.756Z,57.00
2023-09-27T14:09:38.633Z,57.90
2023-09-27T14:12:06.353Z,59.50
2023-09-27T14:14:35.761Z,56.60
2023-09-27T14:17:03.792Z,56.90
2023-09-27T14:19:36.843Z,57.90
2023-09-27T14:22:03.977Z,59.50
2023-09-27T14:24:32.556Z,59.40
2023-09-27T14:27:07.727Z,56.50
2023-09-27T14:29:38.001Z,57.20
2023-09-27T14:32:10.470Z,57.30
2023-09-27T14:37:08.291Z,59.20
2023-09-27T14:39:40.178Z,58.30
2023-09-27T14:42:10.967Z,58.20
2023-09-27T14:44:37.964Z,59.60
2023-09-27T14:47:05.606Z,58.30
2023-09-27T14:49:32.629Z,56.80
2023-09-27T14:52:01.844Z,59.80
2023-09-27T14:54:28.730Z,58.30
2023-09-27T14:56:57.876Z,58.70
2023-09-27T14:59:25.024Z,60.20
2023-09-27T15:01:54.347Z,60.50
2023-09-27T15:04:21.496Z,58.50
2023-09-27T15:06:48.463Z,59.20
2023-09-27T15:09:17.510Z,59.80
2023-09-27T15:11:46.571Z,59.60
2023-09-27T15:14:13.524Z,60.30
2023-09-27T15:16:40.545Z,59.00
2023-09-27T15:19:07.695Z,60.20
2023-09-27T15:21:37.682Z,60.00
2023-09-27T15:24:07.240Z,59.30
2023-09-27T15:26:34.836Z,60.10
2023-09-27T15:29:04.465Z,59.80
2023-09-27T15:31:31.802Z,61.30
2023-09-27T15:34:03.584Z,61.10
2023-09-27T15:36:30.599Z,62.20
2023-09-27T15:39:00.098Z,61.90
2023-09-27T15:41:31.038Z,62.10
2023-09-27T15:43:58.864Z,61.80
2023-09-27T15:46:26.675Z,61.60
2023-09-27T15:48:58.447Z,60.80
2023-09-27T15:51:28.161Z,61.30
2023-09-27T15:54:07.239Z,62.70
2023-09-27T15:56:42.984Z,60.90
2023-09-27T15:59:11.046Z,61.70
2023-09-27T16:01:40.584Z,62.20
2023-09-27T16:04:09.314Z,61.90
2023-09-27T16:06:40.393Z,62.30
2023-09-27T16:09:08.108Z,62.50
2023-09-27T16:11:35.069Z,63.10
2023-09-27T16:14:02.112Z,63.20
2023-09-27T16:16:29.416Z,63.70
2023-09-27T16:18:56.420Z,64.50
2023-09-27T16:21:24.807Z,64.60
2023-09-27T16:23:54.862Z,64.10
2023-09-27T16:26:22.846Z,65.40
2023-09-27T16:28:54.300Z,64.90
2023-09-27T16:31:22.083Z,65.10
2023-09-27T16:33:49.329Z,66.10
2023-09-27T16:36:18.086Z,67.30
2023-09-27T16:38:45.621Z,67.00
2023-09-27T16:41:12.567Z,68.90
2023-09-27T16:43:41.056Z,69.60
2023-09-27T16:46:10.232Z,69.50
2023-09-27T16:48:39.550Z,71.50
2023-09-27T16:51:07.242Z,73.30
2023-09-27T16:53:39.404Z,73.80
2023-09-27T16:56:06.279Z,73.30
2023-09-27T16:58:33.559Z,74.10
2023-09-27T17:01:02.448Z,74.80
2023-09-27T17:03:33.258Z,75.20
2023-09-27T17:06:00.452Z,76.50
2023-09-27T17:08:27.619Z,77.60
2023-09-27T17:10:54.993Z,80.40
2023-09-27T17:13:25.612Z,81.80
2023-09-27T17:15:55.277Z,82.20
2023-09-27T17:18:24.431Z,82.80
2023-09-27T17:20:53.991Z,83.30
2023-09-27T17:23:20.885Z,84.30
2023-09-27T17:25:47.784Z,84.60
2023-09-27T17:28:14.804Z,85.70
2023-09-27T17:30:41.900Z,85.70
2023-09-27T17:33:09.035Z,87.00
2023-09-27T17:35:35.893Z,86.90
2023-09-27T17:38:07.821Z,87.20
2023-09-27T17:40:34.938Z,87.30
2023-09-27T17:43:01.824Z,88.20
2023-09-27T17:45:28.863Z,88.70
2023-09-27T17:47:58.179Z,89.00
2023-09-27T17:50:29.892Z,89.80
2023-09-27T17:52:57.060Z,90.00
2023-09-27T17:55:24.313Z,90.30
2023-09-27T17:57:51.182Z,90.40
2023-09-27T18:00:18.886Z,90.60
2023-09-27T18:02:48.733Z,90.90
2023-09-27T18:05:16.126Z,91.10
2023-09-27T18:07:43.055Z,91.50
2023-09-27T18:10:12.524Z,91.30
2023-09-27T18:12:39.410Z,91.40
2023-09-27T18:15:25.254Z,91.60
2023-09-27T18:17:54.987Z,91.60
2023-09-27T18:20:24.500Z,91.80
2023-09-27T18:22:53.701Z,92.10
2023-09-27T18:25:20.656Z,92.20
2023-09-27T18:27:49.818Z,92.70
2023-09-27T18:30:19.258Z,92.80
2023-09-27T18:32:48.554Z,92.80
2023-09-27T18:35:17.744Z,92.90
2023-09-27T18:37:44.851Z,93.30
2023-09-27T18:40:13.118Z,93.20
2023-09-27T18:42:42.765Z,93.40
2023-09-27T18:45:10.641Z,93.50
2023-09-27T18:47:37.923Z,93.70
2023-09-27T18:50:07.920Z,93.90
2023-09-27T18:52:35.494Z,93.90
2023-09-27T18:55:02.853Z,94.10
2023-09-27T18:57:29.843Z,94.20
2023-09-27T18:59:58.967Z,94.40
2023-09-27T19:02:26.079Z,94.40
2023-09-27T19:04:55.828Z,94.60
2023-09-27T19:07:23.580Z,94.80
2023-09-27T19:09:52.772Z,95.20
2023-09-27T19:12:19.766Z,95.40
2023-09-27T19:14:46.778Z,95.50
2023-09-27T19:17:13.838Z,95.80
2023-09-27T19:19:44.978Z,96.00
2023-09-27T19:22:12.086Z,96.20
2023-09-27T19:24:39.424Z,96.50
2023-09-27T19:27:06.384Z,96.80
2023-09-27T19:29:35.679Z,97.10
2023-09-27T19:32:07.351Z,97.20
2023-09-27T19:34:39.460Z,97.50
2023-09-27T19:37:09.556Z,97.90
2023-09-27T19:39:36.829Z,98.30
2023-09-27T19:42:06.040Z,98.30
2023-09-27T19:44:38.022Z,98.40
2023-09-27T19:47:09.135Z,98.60
2023-09-27T19:49:36.085Z,98.90
2023-09-27T19:52:03.489Z,99.30
2023-09-27T19:54:30.360Z,99.10
2023-09-27T19:57:00.112Z,98.90
2023-09-27T19:59:27.271Z,98.80
2023-09-27T20:02:00.309Z,99.00
2023-09-27T20:04:29.694Z,99.00
2023-09-27T20:06:56.860Z,99.30
2023-09-27T20:09:23.766Z,99.70
2023-09-27T20:11:52.787Z,99.90
2023-09-27T20:14:21.917Z,99.90
2023-09-27T20:16:51.666Z,99.90
2023-09-27T20:19:19.045Z,99.90
2023-09-27T20:21:45.827Z,99.80
2023-09-27T20:24:15.294Z,99.90
2023-09-27T20:26:42.307Z,99.90
2023-09-27T20:29:10.482Z,99.90
2023-09-27T20:31:37.618Z,99.90
2023-09-27T20:34:06.881Z,99.90
2023-09-27T20:36:36.163Z,99.90
2023-09-27T20:39:03.317Z,99.90
2023-09-27T20:41:30.244Z,99.90
2023-09-27T20:43:57.379Z,99.90
2023-09-27T20:46:24.343Z,99.90
2023-09-27T20:48:51.342Z,99.90
2023-09-27T20:51:18.340Z,99.90
2023-09-27T20:53:45.204Z,99.90
2023-09-27T20:56:12.262Z,99.90
2023-09-27T20:58:42.736Z,99.90
2023-09-27T21:01:39.904Z,99.90
2023-09-27T21:04:12.219Z,99.90
2023-09-27T21:06:41.301Z,99.90
2023-09-27T21:09:11.087Z,99.90
2023-09-27T21:11:38.213Z,99.90
2023-09-27T21:14:05.677Z,99.90
2023-09-27T21:16:34.405Z,99.90
2023-09-27T21:19:03.113Z,99.90
2023-09-27T21:21:33.278Z,99.90
2023-09-27T21:24:01.157Z,99.90
2023-09-27T21:26:30.229Z,99.90
2023-09-27T21:28:57.127Z,99.90
2023-09-27T21:31:28.872Z,99.90
2023-09-27T21:33:56.082Z,99.90
2023-09-27T21:36:25.550Z,99.90
2023-09-27T21:38:52.650Z,99.90
2023-09-27T21:41:22.235Z,99.90
2023-09-27T21:43:49.419Z,99.90
2023-09-27T21:46:20.167Z,99.90
2023-09-27T21:48:48.981Z,99.90
2023-09-27T21:51:16.752Z,99.90
2023-09-27T21:53:43.998Z,99.90
2023-09-27T21:56:14.424Z,99.90
2023-09-27T21:58:44.611Z,99.90
2023-09-27T22:01:17.109Z,99.90
2023-09-27T22:03:46.366Z,99.90
2023-09-27T22:06:14.384Z,99.90
2023-09-27T22:08:49.312Z,99.90
2023-09-27T22:11:20.159Z,99.90
2023-09-27T22:13:49.187Z,99.90
2023-09-27T22:16:16.373Z,99.90
2023-09-27T22:18:49.411Z,99.90
2023-09-27T22:21:38.613Z,99.90
2023-09-27T22:24:13.160Z,99.90
2023-09-27T22:26:52.508Z,99.90
2023-09-27T22:29:22.354Z,99.90
2023-09-27T22:31:51.413Z,99.90
2023-09-27T22:34:26.400Z,99.90
2023-09-27T22:36:53.912Z,99.90
2023-09-27T22:39:22.819Z,99.90
2023-09-27T22:41:53.301Z,99.90
2023-09-27T22:44:24.159Z,99.90
2023-09-27T22:46:54.034Z,99.90
2023-09-27T22:49:23.057Z,99.90
2023-09-27T22:51:50.336Z,99.90
2023-09-27T22:54:18.273Z,99.90
2023-09-27T22:56:49.017Z,99.90
2023-09-27T22:59:17.002Z,99.90
2023-09-27T23:01:47.138Z,99.90
2023-09-27T23:04:17.552Z,99.90
2023-09-27T23:06:46.340Z,99.90
2023-09-27T23:09:25.920Z,99.90
2023-09-27T23:12:17.664Z,99.90
2023-09-27T23:15:14.064Z,99.90
2023-09-27T23:17:59.646Z,99.90
2023-09-27T23:20:31.433Z,99.90
2023-09-27T23:23:00.914Z,99.90
2023-09-27T23:25:40.103Z,99.90
2023-09-27T23:28:17.198Z,99.90
2023-09-27T23:30:51.196Z,99.90
2023-09-27T23:33:20.929Z,99.90
2023-09-27T23:35:51.134Z,99.90
2023-09-27T23:38:40.034Z,99.90
2023-09-27T23:41:09.340Z,99.90
2023-09-27T23:43:41.693Z,99.90
2023-09-27T23:46:26.600Z,99.90
2023-09-27T23:48:56.263Z,99.90
2023-09-27T23:51:25.587Z,99.90
2023-09-27T23:54:00.088Z,99.90
2023-09-27T23:56:35.927Z,99.90
2023-09-27T23:59:09.548Z,99.90
